Time;durP1;ratioP1;P1;durP2;ratioP2;P2;SDS_P1;SDS_P2;PMS_P1;PMS_P2;Temp;Humidity;BMP_temperature;BMP_pressure;BME280_temperature;BME280_humidity;BME280_pressure;Samples;Min_cycle;Max_cycle;Signal;HPM_P1;HPM_P2
2022/11/15 00:01:34;;;;;;;60.83;37.15;;;;;;;5.09;90.33;100945.41;7397332;19;20032;-70
2022/11/15 00:04:02;;;;;;;63.78;39.22;;;;;;;5.09;90.50;100941.94;7395742;19;20022;-70
2022/11/15 00:06:34;;;;;;;59.90;38.10;;;;;;;5.06;90.32;100942.81;7395698;19;20023;-71
2022/11/15 00:09:03;;;;;;;64.97;38.83;;;;;;;5.05;90.53;100949.75;7397241;19;20413;-71
2022/11/15 00:11:32;;;;;;;59.55;37.95;;;;;;;5.03;90.45;100954.06;7397175;19;20073;-71
2022/11/15 00:14:02;;;;;;;61.67;37.17;;;;;;;5.02;90.47;100936.72;7396298;19;20022;-71
2022/11/15 00:16:30;;;;;;;61.80;37.53;;;;;;;5.00;90.53;100937.56;7396745;19;20481;-71
2022/11/15 00:18:59;;;;;;;64.55;37.67;;;;;;;4.99;90.57;100934.13;7395423;19;20015;-71
2022/11/15 00:21:28;;;;;;;56.22;35.95;;;;;;;4.97;90.68;100929.78;7396815;19;20015;-71
2022/11/15 00:23:59;;;;;;;59.15;37.25;;;;;;;4.93;90.61;100923.69;7396064;19;20035;-69
2022/11/15 00:26:27;;;;;;;59.83;37.20;;;;;;;4.89;90.45;100924.50;7396498;19;20090;-71
2022/11/15 00:28:56;;;;;;;63.15;37.22;;;;;;;4.86;90.66;100922.75;7396780;19;20018;-72
2022/11/15 00:31:24;;;;;;;55.65;34.22;;;;;;;4.83;90.42;100919.31;7396824;19;20035;-71
2022/11/15 00:33:53;;;;;;;59.35;35.15;;;;;;;4.78;90.50;100913.19;7394879;19;20424;-70
2022/11/15 00:36:21;;;;;;;59.08;35.80;;;;;;;4.76;90.47;100912.34;7396167;19;20028;-71
2022/11/15 00:38:49;;;;;;;58.42;35.83;;;;;;;4.71;90.61;100908.00;7394721;19;20022;-71
2022/11/15 00:41:20;;;;;;;58.30;37.72;;;;;;;4.69;90.69;100914.91;7394315;19;20503;-71
2022/11/15 00:43:49;;;;;;;57.65;36.28;;;;;;;4.67;90.68;100921.81;7395174;19;20022;-71
2022/11/15 00:46:17;;;;;;;61.00;37.38;;;;;;;4.65;90.76;100927.84;7396378;19;20104;-71
2022/11/15 00:48:46;;;;;;;66.82;38.40;;;;;;;4.63;90.76;100921.81;7394087;19;20015;-71
2022/11/15 00:51:14;;;;;;;66.65;39.05;;;;;;;4.60;90.78;100914.84;7395849;19;20014;-71
2022/11/15 00:53:43;;;;;;;63.97;41.22;;;;;;;4.60;90.73;100913.97;7395343;19;20037;-72
2022/11/15 00:56:11;;;;;;;63.75;40.25;;;;;;;4.57;90.85;100910.53;7396054;19;20130;-71
2022/11/15 00:58:42;;;;;;;65.63;38.25;;;;;;;4.55;90.80;100913.97;7394720;19;20018;-71
2022/11/15 01:01:13;;;;;;;63.92;37.78;;;;;;;4.53;91.09;100913.94;7393959;19;20410;-71
2022/11/15 01:03:42;;;;;;;66.93;39.90;;;;;;;4.52;90.91;100906.13;7395379;19;20035;-71
2022/11/15 01:06:12;;;;;;;68.28;39.05;;;;;;;4.49;91.13;100901.78;7395635;19;20074;-71
2022/11/15 01:08:41;;;;;;;69.30;38.40;;;;;;;4.49;91.11;100900.94;7395725;19;20082;-71
2022/11/15 01:11:11;;;;;;;68.30;40.00;;;;;;;4.47;91.29;100898.31;7395601;19;20039;-71
2022/11/15 01:13:43;;;;;;;67.55;38.42;;;;;;;4.46;91.31;100891.41;7395091;19;20085;-71
2022/11/15 01:16:14;;;;;;;69.28;39.28;;;;;;;4.44;91.48;100885.31;7395786;19;20035;-71
2022/11/15 01:18:43;;;;;;;67.32;39.60;;;;;;;4.40;91.35;100887.03;7393357;19;20548;-71
2022/11/15 01:21:13;;;;;;;70.90;39.78;;;;;;;4.40;91.72;100887.03;7394922;19;20018;-71
2022/11/15 01:23:42;;;;;;;65.07;39.67;;;;;;;4.40;91.70;100876.63;7394791;19;20022;-70
2022/11/15 01:26:24;;;;;;;70.45;40.78;;;;;;;4.40;91.94;100876.63;7392485;19;20408;-70
2022/11/15 01:28:55;;;;;;;75.93;40.50;;;;;;;4.42;92.10;100871.44;7395583;19;20039;-70
2022/11/15 01:31:24;;;;;;;71.25;40.05;;;;;;;4.43;92.00;100870.56;7395872;19;20014;-70
2022/11/15 01:33:52;;;;;;;75.78;42.58;;;;;;;4.44;92.37;100867.13;7394432;19;20039;-69
2022/11/15 01:36:23;;;;;;;74.47;42.00;;;;;;;4.46;92.29;100875.81;7395794;19;20022;-70
2022/11/15 01:38:56;;;;;;;79.53;42.55;;;;;;;4.47;92.66;100863.66;7393485;19;20079;-71
2022/11/15 01:41:27;;;;;;;73.97;40.90;;;;;;;4.50;92.72;100866.28;7395157;19;20015;-71
2022/11/15 01:44:00;;;;;;;76.75;41.63;;;;;;;4.53;92.83;100861.13;7393283;19;20517;-70
2022/11/15 01:46:33;;;;;;;74.40;42.87;;;;;;;4.56;92.83;100859.41;7395176;19;20015;-71
2022/11/15 01:49:06;;;;;;;75.70;42.38;;;;;;;4.60;93.02;100855.09;7395063;19;20063;-71
2022/11/15 01:51:36;;;;;;;76.18;40.75;;;;;;;4.64;93.40;100840.34;7394466;19;20388;-70
2022/11/15 01:54:10;;;;;;;78.13;42.55;;;;;;;4.67;93.12;100842.97;7393204;19;20023;-71
2022/11/15 01:56:43;;;;;;;73.57;39.75;;;;;;;4.71;93.05;100842.13;7394635;19;20031;-71
2022/11/15 01:59:15;;;;;;;68.75;39.35;;;;;;;4.73;93.24;100838.66;7392973;19;20018;-71
2022/11/15 02:01:44;;;;;;;75.05;40.88;;;;;;;4.76;93.17;100837.81;7399837;19;20027;-71
2022/11/15 02:04:18;;;;;;;72.53;39.83;;;;;;;4.78;93.01;100830.00;7399834;19;20031;-71
2022/11/15 02:06:48;;;;;;;73.07;41.53;;;;;;;4.79;93.00;100823.94;7399271;19;20015;-71
2022/11/15 02:09:17;;;;;;;69.30;38.72;;;;;;;4.81;93.27;100830.03;7402264;19;20022;-72
2022/11/15 02:11:48;;;;;;;68.25;39.72;;;;;;;4.81;93.11;100827.44;7400954;19;20553;-72
2022/11/15 02:14:22;;;;;;;69.40;38.33;;;;;;;4.84;92.92;100835.22;7399895;19;20426;-69
2022/11/15 02:17:01;;;;;;;65.90;38.72;;;;;;;4.84;93.02;100823.13;7401407;19;20032;-68
2022/11/15 02:19:52;;;;;;;66.20;37.45;;;;;;;4.84;93.11;100820.53;7399212;19;20018;-69
2022/11/15 02:22:37;;;;;;;68.30;37.80;;;;;;;4.84;93.16;100817.91;7398719;19;20026;-68
2022/11/15 02:25:21;;;;;;;64.57;37.25;;;;;;;4.83;93.07;100823.97;7397918;19;20022;-68
2022/11/15 02:28:18;;;;;;;58.50;35.95;;;;;;;4.82;93.02;100818.78;7398879;19;20027;-68
2022/11/15 02:30:56;;;;;;;67.22;38.40;;;;;;;4.80;92.87;100816.19;7401333;19;20023;-66
2022/11/15 02:33:36;;;;;;;69.25;37.42;;;;;;;4.78;93.18;100830.91;7399512;19;20502;-66
2022/11/15 02:36:09;;;;;;;62.28;36.15;;;;;;;4.76;92.94;100822.22;7401111;19;20018;-66
2022/11/15 02:38:49;;;;;;;61.15;35.75;;;;;;;4.75;93.05;100817.00;7397690;19;20074;-67
2022/11/15 02:41:22;;;;;;;61.85;35.28;;;;;;;4.73;92.98;100822.22;7400817;19;20023;-66
2022/11/15 02:43:56;;;;;;;60.47;34.42;;;;;;;4.72;93.19;100821.31;7397628;19;20078;-67
2022/11/15 02:49:14;;;;;;;64.43;36.10;;;;;;;4.68;93.06;100814.38;7397006;19;20011;-67
2022/11/15 02:51:44;;;;;;;67.68;37.95;;;;;;;4.67;92.96;100814.41;7399845;19;20010;-66
2022/11/15 02:54:16;;;;;;;63.88;35.28;;;;;;;4.67;93.02;100812.66;7397681;19;20022;-67
2022/11/15 02:56:48;;;;;;;60.70;35.75;;;;;;;4.66;93.02;100810.94;7399611;19;20485;-67
2022/11/15 02:59:36;;;;;;;59.25;35.40;;;;;;;4.64;93.08;100815.25;7397742;19;20014;-67
2022/11/15 03:02:20;;;;;;;59.28;34.20;;;;;;;4.64;93.22;100807.47;7399513;19;20418;-68
2022/11/15 03:04:56;;;;;;;61.33;36.63;;;;;;;4.65;93.03;100809.19;7397409;19;20036;-67
2022/11/15 03:07:32;;;;;;;59.30;36.47;;;;;;;4.64;93.21;100816.97;7399821;19;20022;-67
2022/11/15 03:10:08;;;;;;;62.92;35.90;;;;;;;4.63;93.02;100803.13;7400017;19;20018;-67
2022/11/15 03:12:41;;;;;;;68.25;37.97;;;;;;;4.64;93.23;100807.47;7395896;19;20035;-67
2022/11/15 03:15:14;;;;;;;68.18;37.88;;;;;;;4.65;93.32;100800.50;7400413;19;20018;-68
2022/11/15 03:17:51;;;;;;;62.17;35.53;;;;;;;4.66;93.15;100802.25;7397822;19;20015;-66
2022/11/15 03:20:21;;;;;;;66.20;36.35;;;;;;;4.65;93.19;100804.00;7398752;19;21045;-66
2022/11/15 03:22:52;;;;;;;64.88;34.67;;;;;;;4.65;93.30;100796.19;7398915;19;20022;-67
2022/11/15 03:25:25;;;;;;;60.30;34.83;;;;;;;4.64;93.17;100794.47;7399507;19;20022;-67
2022/11/15 03:27:58;;;;;;;62.30;33.08;;;;;;;4.66;93.20;100808.34;7397506;19;20537;-66
2022/11/15 03:30:26;;;;;;;59.03;34.83;;;;;;;4.65;93.25;100798.81;7399084;19;20022;-67
2022/11/15 03:33:00;;;;;;;64.57;34.53;;;;;;;4.67;93.45;100802.25;7396515;19;20039;-70
2022/11/15 03:35:31;;;;;;;58.10;31.98;;;;;;;4.68;93.66;100790.16;7399067;19;20026;-67
2022/11/15 03:38:07;;;;;;;57.70;30.98;;;;;;;4.69;93.59;100790.16;7398668;19;20023;-67
2022/11/15 03:40:41;;;;;;;55.83;31.95;;;;;;;4.71;93.30;100783.22;7398129;19;20015;-68
2022/11/15 03:43:15;;;;;;;53.22;31.17;;;;;;;4.73;93.71;100793.63;7396788;19;20032;-67
2022/11/15 03:45:49;;;;;;;52.65;30.58;;;;;;;4.75;93.60;100786.69;7398802;19;20018;-67
2022/11/15 03:48:25;;;;;;;55.55;32.22;;;;;;;4.79;93.56;100787.56;7398841;19;20036;-67
2022/11/15 03:50:54;;;;;;;55.15;30.52;;;;;;;4.81;93.72;100781.50;7396192;19;20031;-67
2022/11/15 03:53:23;;;;;;;50.85;30.45;;;;;;;4.83;93.56;100781.53;7397112;19;20022;-67
2022/11/15 03:55:51;;;;;;;56.00;32.08;;;;;;;4.86;93.71;100786.72;7396058;19;20036;-67
2022/11/15 03:58:20;;;;;;;54.38;32.22;;;;;;;4.89;93.90;100782.41;7397380;19;20422;-67
2022/11/15 04:00:48;;;;;;;52.60;30.58;;;;;;;4.95;94.01;100785.88;7397845;19;20089;-67
2022/11/15 04:03:19;;;;;;;53.65;32.03;;;;;;;4.97;93.72;100774.63;7396815;19;20549;-67
2022/11/15 04:05:48;;;;;;;51.85;31.38;;;;;;;5.01;93.57;100770.28;7396118;19;20022;-67
2022/11/15 04:08:16;;;;;;;54.05;33.25;;;;;;;5.04;93.54;100775.47;7395194;19;20453;-68
2022/11/15 04:10:45;;;;;;;52.75;32.17;;;;;;;5.05;93.47;100780.72;7395430;19;20082;-67
2022/11/15 04:13:13;;;;;;;48.45;27.95;;;;;;;5.09;93.56;100772.91;7395439;19;20070;-66
2022/11/15 04:15:42;;;;;;;47.08;28.77;;;;;;;5.09;93.46;100773.75;7395092;19;20485;-67
2022/11/15 04:18:10;;;;;;;48.53;28.88;;;;;;;5.12;93.49;100772.88;7396944;19;20031;-66
2022/11/15 04:26:09;;;;;;;45.92;27.52;;;;;;;5.14;93.52;100766.81;7397016;19;20022;-68
2022/11/15 04:29:33;;;;;;;48.78;28.75;;;;;;;5.16;93.62;100765.09;7394853;19;20519;-68
2022/11/15 04:31:26;;;;;;;48.72;29.05;;;;;;;5.18;93.26;100765.09;7396064;19;20024;-68
2022/11/15 04:33:55;;;;;;;52.28;28.27;;;;;;;5.20;93.35;100777.22;7394671;19;20495;-67
2022/11/15 04:39:07;;;;;;;47.83;29.30;;;;;;;5.21;93.23;100763.38;7395611;19;20010;-68
2022/11/15 04:41:35;;;;;;;49.10;28.55;;;;;;;5.22;93.30;100761.66;7395694;19;20481;-68
2022/11/15 04:44:04;;;;;;;47.53;29.35;;;;;;;5.25;93.15;100752.97;7394617;19;20019;-68
2022/11/15 04:46:32;;;;;;;48.20;28.13;;;;;;;5.25;93.36;100756.44;7394204;19;20027;-67
2022/11/15 04:49:01;;;;;;;47.42;28.63;;;;;;;5.26;93.27;100752.09;7396019;19;20018;-67
2022/11/15 04:51:32;;;;;;;49.95;30.48;;;;;;;5.28;93.22;100747.75;7396158;19;20510;-67
2022/11/15 04:54:00;;;;;;;44.72;28.33;;;;;;;5.29;93.08;100754.72;7394628;19;20489;-67
2022/11/15 04:56:29;;;;;;;48.22;28.73;;;;;;;5.29;92.89;100749.50;7395404;19;20091;-66
2022/11/15 04:58:57;;;;;;;44.63;27.90;;;;;;;5.29;92.96;100754.72;7395370;19;20015;-67
2022/11/15 05:01:26;;;;;;;50.13;29.75;;;;;;;5.29;92.98;100758.16;7393782;19;20043;-68
2022/11/15 05:06:37;;;;;;;47.55;28.23;;;;;;;5.28;92.75;100761.66;7395605;19;20034;-67
2022/11/15 05:09:06;;;;;;;46.05;27.67;;;;;;;5.29;92.61;100762.50;7394135;19;20019;-67
2022/11/15 05:11:34;;;;;;;48.75;29.05;;;;;;;5.27;92.89;100762.53;7394890;19;20384;-68
2022/11/15 05:14:03;;;;;;;46.00;27.70;;;;;;;5.25;92.70;100752.97;7393748;19;20035;-67
2022/11/15 05:16:31;;;;;;;44.10;28.30;;;;;;;5.26;92.55;100757.28;7394873;19;20506;-67
2022/11/15 05:19:00;;;;;;;47.72;30.45;;;;;;;5.25;92.58;100764.25;7393144;19;20023;-67
2022/11/15 05:21:28;;;;;;;53.75;31.55;;;;;;;5.25;92.72;100769.44;7395068;19;20193;-67
2022/11/15 05:24:00;;;;;;;45.75;27.85;;;;;;;5.23;92.55;100763.38;7392765;19;20431;-67
2022/11/15 05:26:29;;;;;;;45.35;27.50;;;;;;;5.23;92.52;100771.16;7392875;19;20011;-68
2022/11/15 05:28:59;;;;;;;45.97;28.13;;;;;;;5.22;92.66;100770.31;7392847;19;20027;-68
2022/11/15 05:31:29;;;;;;;45.78;27.20;;;;;;;5.19;92.49;100769.44;7394620;19;20046;-68
2022/11/15 05:33:58;;;;;;;44.38;27.17;;;;;;;5.19;92.60;100770.31;7392817;19;20014;-68
2022/11/15 05:36:32;;;;;;;45.33;28.00;;;;;;;5.17;92.53;100768.59;7398556;19;20015;-68
2022/11/15 05:39:03;;;;;;;46.55;29.20;;;;;;;5.13;92.56;100759.91;7401067;19;20018;-67
2022/11/15 05:41:36;;;;;;;42.05;26.10;;;;;;;5.09;92.29;100760.75;7398949;19;20022;-67
2022/11/15 05:44:08;;;;;;;50.38;29.35;;;;;;;5.09;92.50;100765.09;7399736;19;20489;-67
2022/11/15 05:46:38;;;;;;;47.85;29.05;;;;;;;5.05;92.39;100762.50;7399250;19;20096;-67
2022/11/15 05:49:09;;;;;;;45.65;28.98;;;;;;;5.02;92.41;100761.63;7398950;19;20023;-67
2022/11/15 05:51:37;;;;;;;46.95;29.17;;;;;;;4.99;92.37;100759.91;7398551;19;20011;-67
2022/11/15 05:54:08;;;;;;;58.05;34.53;;;;;;;4.96;92.46;100757.28;7400256;19;20026;-67
2022/11/15 05:56:37;;;;;;;58.85;31.42;;;;;;;4.95;92.52;100757.28;7398897;19;20014;-66
2022/11/15 05:59:06;;;;;;;54.83;30.67;;;;;;;4.94;92.56;100753.81;7398933;19;20512;-67
2022/11/15 06:01:35;;;;;;;54.55;30.25;;;;;;;4.91;92.51;100748.59;7399715;19;20033;-71
2022/11/15 06:04:10;;;;;;;47.88;29.67;;;;;;;4.89;92.45;100745.13;7398964;19;20032;-67
2022/11/15 06:06:38;;;;;;;44.75;28.15;;;;;;;4.88;92.58;100746.00;7400772;19;20027;-68
2022/11/15 06:09:09;;;;;;;48.35;29.15;;;;;;;4.86;92.67;100750.31;7400238;19;20099;-68
2022/11/15 06:11:38;;;;;;;52.28;29.98;;;;;;;4.84;92.61;100744.25;7397584;19;20479;-68
2022/11/15 06:14:07;;;;;;;49.65;27.15;;;;;;;4.82;92.72;100741.66;7398410;19;20035;-66
2022/11/15 06:16:36;;;;;;;45.03;28.02;;;;;;;4.82;92.81;100748.59;7397864;19;20027;-68
2022/11/15 06:19:04;;;;;;;49.20;28.75;;;;;;;4.81;92.95;100755.50;7397297;19;20527;-68
2022/11/15 06:21:33;;;;;;;53.33;30.33;;;;;;;4.79;92.90;100752.06;7399306;19;20019;-66
2022/11/15 06:24:01;;;;;;;49.10;29.48;;;;;;;4.79;92.93;100751.16;7397788;19;20035;-67
2022/11/15 06:26:33;;;;;;;46.58;28.45;;;;;;;4.79;92.91;100752.06;7399899;19;20019;-67
2022/11/15 06:29:01;;;;;;;48.85;28.23;;;;;;;4.79;92.77;100758.97;7397187;19;20372;-67
2022/11/15 06:31:30;;;;;;;46.55;27.50;;;;;;;4.79;92.73;100756.38;7399293;19;20022;-67
2022/11/15 06:33:58;;;;;;;46.38;28.30;;;;;;;4.77;92.80;100765.91;7398375;19;20022;-68
2022/11/15 06:36:27;;;;;;;44.03;26.23;;;;;;;4.75;93.01;100765.88;7397432;19;20022;-68
2022/11/15 06:38:55;;;;;;;48.45;27.80;;;;;;;4.74;93.04;100761.56;7398048;19;20518;-67
2022/11/15 06:41:24;;;;;;;44.70;28.85;;;;;;;4.72;92.70;100766.75;7396600;19;20054;-67
2022/11/15 06:43:55;;;;;;;41.63;26.30;;;;;;;4.71;92.70;100774.53;7397928;19;20014;-66
2022/11/15 06:46:24;;;;;;;41.70;26.55;;;;;;;4.68;92.93;100778.00;7398399;19;20027;-67
2022/11/15 06:48:53;;;;;;;44.00;27.42;;;;;;;4.68;92.86;100782.34;7395921;19;20022;-69
2022/11/15 06:51:22;;;;;;;50.25;28.67;;;;;;;4.65;92.83;100780.59;7398931;19;20018;-67
2022/11/15 06:53:51;;;;;;;46.63;27.77;;;;;;;4.64;92.76;100776.28;7395483;19;20415;-67
2022/11/15 06:56:19;;;;;;;47.17;27.42;;;;;;;4.62;92.95;100772.78;7398945;19;20027;-67
2022/11/15 06:58:47;;;;;;;47.33;29.40;;;;;;;4.61;93.05;100781.44;7395857;19;20015;-67
2022/11/15 07:01:19;;;;;;;41.60;26.98;;;;;;;4.61;92.71;100780.59;7397949;19;20483;-67
2022/11/15 07:03:47;;;;;;;48.88;29.42;;;;;;;4.59;92.93;100778.00;7396248;19;20031;-67
2022/11/15 07:06:22;;;;;;;44.97;27.73;;;;;;;4.59;92.96;100782.28;7395196;19;20015;-67
2022/11/15 07:08:51;;;;;;;47.78;28.48;;;;;;;4.57;92.80;100772.78;7395585;19;20089;-67
2022/11/15 07:11:19;;;;;;;53.80;30.90;;;;;;;4.57;92.91;100775.38;7397748;19;20023;-67
2022/11/15 07:13:48;;;;;;;47.35;29.17;;;;;;;4.56;92.98;100775.38;7397039;19;20477;-67
2022/11/15 07:16:19;;;;;;;47.05;29.73;;;;;;;4.57;93.07;100783.19;7398206;19;20108;-67
2022/11/15 07:18:47;;;;;;;45.60;29.15;;;;;;;4.58;92.94;100778.84;7398185;19;20011;-67
2022/11/15 07:21:16;;;;;;;51.33;30.10;;;;;;;4.57;93.18;100774.50;7395866;19;20040;-67
2022/11/15 07:23:44;;;;;;;49.15;28.30;;;;;;;4.58;93.01;100778.84;7395570;19;20082;-67
2022/11/15 07:26:13;;;;;;;48.10;27.90;;;;;;;4.59;93.02;100779.69;7395099;19;20011;-66
2022/11/15 07:28:41;;;;;;;52.88;30.80;;;;;;;4.60;93.13;100782.31;7394683;19;20010;-67
2022/11/15 07:31:11;;;;;;;49.95;29.23;;;;;;;4.62;93.33;100788.38;7397850;19;20031;-67
2022/11/15 07:33:42;;;;;;;51.47;29.15;;;;;;;4.63;93.34;100784.94;7395067;19;20033;-67
2022/11/15 07:36:12;;;;;;;86.97;49.42;;;;;;;4.66;93.33;100790.16;7398155;19;20027;-66
2022/11/15 07:38:40;;;;;;;88.93;51.40;;;;;;;4.70;93.62;100791.88;7396964;19;20018;-66
2022/11/15 07:41:09;;;;;;;69.22;41.88;;;;;;;4.72;93.64;100784.94;7394655;19;20022;-67
2022/11/15 07:43:37;;;;;;;59.83;34.58;;;;;;;4.78;93.56;100788.41;7394844;19;20402;-67
2022/11/15 07:46:09;;;;;;;51.10;31.50;;;;;;;4.80;93.59;100787.59;7395157;19;20023;-67
2022/11/15 07:48:39;;;;;;;48.03;30.13;;;;;;;4.85;93.59;100795.38;7397907;19;20018;-67
2022/11/15 07:51:13;;;;;;;45.58;28.02;;;;;;;4.88;93.93;100785.84;7394957;19;20015;-67
2022/11/15 07:53:42;;;;;;;47.60;27.83;;;;;;;4.96;93.88;100791.06;7395074;19;20500;-67
2022/11/15 07:56:10;;;;;;;44.55;27.42;;;;;;;5.00;93.91;100787.59;7394823;19;20072;-66
2022/11/15 07:58:39;;;;;;;45.03;27.08;;;;;;;5.07;94.30;100788.50;7395544;19;20502;-66
2022/11/15 08:01:08;;;;;;;47.28;26.92;;;;;;;5.15;94.21;100791.13;7394561;19;20094;-66
2022/11/15 08:03:37;;;;;;;40.47;26.85;;;;;;;5.21;94.24;100786.78;7395785;19;20015;-67
2022/11/15 08:06:06;;;;;;;40.42;26.25;;;;;;;5.30;94.21;100785.06;7396821;19;20371;-67
2022/11/15 08:08:38;;;;;;;39.58;25.02;;;;;;;5.38;94.34;100785.91;7396284;19;20439;-66
2022/11/15 08:11:06;;;;;;;40.55;25.25;;;;;;;5.46;94.04;100783.31;7396653;19;20018;-67
2022/11/15 08:13:35;;;;;;;39.38;25.20;;;;;;;5.53;94.41;100779.84;7395463;19;20014;-67
2022/11/15 08:16:05;;;;;;;41.35;27.00;;;;;;;5.63;94.06;100781.56;7393893;19;20018;-66
2022/11/15 08:18:33;;;;;;;37.50;23.25;;;;;;;5.72;94.14;100778.09;7395781;19;20014;-67
2022/11/15 08:21:03;;;;;;;39.00;24.00;;;;;;;5.81;93.97;100777.22;7394302;19;20478;-67
2022/11/15 08:23:31;;;;;;;37.22;24.77;;;;;;;5.93;93.95;100773.75;7395377;19;20031;-67
2022/11/15 08:26:07;;;;;;;35.70;23.10;;;;;;;6.02;93.69;100769.41;7393780;19;20024;-67
2022/11/15 08:28:35;;;;;;;34.90;21.73;;;;;;;6.11;93.64;100767.66;7394033;19;20015;-68
2022/11/15 08:31:05;;;;;;;34.67;23.08;;;;;;;6.21;93.22;100776.31;7395358;19;20506;-68
2022/11/15 08:33:34;;;;;;;35.30;21.85;;;;;;;6.29;92.97;100785.84;7395090;19;20039;-68
2022/11/15 08:36:03;;;;;;;31.52;20.73;;;;;;;6.36;92.80;100784.94;7395620;19;20035;-68
2022/11/15 08:38:32;;;;;;;31.65;21.58;;;;;;;6.45;92.72;100781.41;7395485;19;20039;-67
2022/11/15 08:41:07;;;;;;;32.58;20.83;;;;;;;6.53;92.51;100784.00;7394020;19;20015;-68
2022/11/15 08:43:35;;;;;;;28.88;19.40;;;;;;;6.61;92.34;100777.00;7395074;19;20039;-68
2022/11/15 08:46:04;;;;;;;29.20;19.98;;;;;;;6.69;92.13;100771.75;7396726;19;20022;-67
2022/11/15 08:48:32;;;;;;;31.67;19.95;;;;;;;6.76;91.62;100769.97;7396222;19;20525;-65
2022/11/15 08:51:01;;;;;;;28.45;19.77;;;;;;;6.84;91.44;100765.59;7395602;19;20010;-66
2022/11/15 08:53:29;;;;;;;27.88;18.58;;;;;;;6.94;91.19;100766.41;7395284;19;20014;-67
2022/11/15 08:55:58;;;;;;;30.33;18.48;;;;;;;7.03;90.74;100766.34;7395512;19;20035;-66
2022/11/15 08:58:29;;;;;;;25.13;18.00;;;;;;;7.11;90.63;100771.50;7394839;19;20466;-67
2022/11/15 09:00:57;;;;;;;28.83;17.95;;;;;;;7.21;90.27;100767.09;7395889;19;20104;-67
2022/11/15 09:03:26;;;;;;;26.15;17.58;;;;;;;7.29;90.07;100766.16;7395309;19;20026;-68
2022/11/15 09:05:57;;;;;;;28.13;17.63;;;;;;;7.38;89.68;100772.16;7396084;19;20147;-69
2022/11/15 09:08:26;;;;;;;22.95;16.38;;;;;;;7.44;89.43;100767.78;7395495;19;20029;-68
2022/11/15 09:10:55;;;;;;;24.85;17.48;;;;;;;7.53;88.60;100765.94;7392780;19;20036;-69
2022/11/15 09:13:23;;;;;;;23.27;17.10;;;;;;;7.62;88.40;100777.19;7394220;19;20035;-69
2022/11/15 09:15:54;;;;;;;24.52;16.88;;;;;;;7.72;88.20;100774.47;7394823;19;20019;-68
2022/11/15 09:18:23;;;;;;;21.85;15.45;;;;;;;7.79;87.75;100768.31;7394345;19;20363;-69
2022/11/15 09:20:51;;;;;;;26.30;17.10;;;;;;;7.86;87.51;100756.06;7392203;19;20533;-69
2022/11/15 09:23:20;;;;;;;25.75;16.92;;;;;;;7.93;87.06;100755.97;7392697;19;20023;-68
2022/11/15 09:25:49;;;;;;;20.13;14.68;;;;;;;8.01;86.81;100749.81;7392723;19;20014;-68
2022/11/15 09:28:17;;;;;;;24.67;14.70;;;;;;;8.08;86.37;100752.34;7393836;19;20007;-68
2022/11/15 09:30:46;;;;;;;20.63;13.60;;;;;;;8.15;85.99;100754.00;7394552;19;20048;-69
2022/11/15 09:33:17;;;;;;;21.13;15.38;;;;;;;8.23;86.08;100753.91;7391727;19;20481;-70
2022/11/15 09:35:45;;;;;;;21.40;14.52;;;;;;;8.29;85.79;100751.22;7391982;19;20481;-68
2022/11/15 09:38:14;;;;;;;20.85;13.60;;;;;;;8.37;85.63;100755.50;7393677;19;20489;-69
2022/11/15 09:40:42;;;;;;;20.88;14.02;;;;;;;8.43;85.24;100752.81;7392545;19;20099;-68
2022/11/15 09:43:34;;;;;;;20.98;12.73;;;;;;;8.52;83.66;100759.69;7391728;19;20085;-68
2022/11/15 09:46:14;;;;;;;17.10;12.40;;;;;;;8.61;84.08;100764.81;7393481;19;20007;-69
2022/11/15 09:49:03;;;;;;;17.30;11.45;;;;;;;8.69;83.25;100769.94;7393569;19;20010;-70
2022/11/15 09:51:34;;;;;;;17.98;12.20;;;;;;;8.76;83.99;100763.75;7394836;19;20030;-69
2022/11/15 09:54:12;;;;;;;16.08;12.07;;;;;;;8.83;83.74;100767.13;7392454;19;20022;-69
2022/11/15 09:56:44;;;;;;;20.35;12.63;;;;;;;8.90;83.33;100768.78;7394041;19;20021;-68
2022/11/15 09:59:36;;;;;;;16.98;11.57;;;;;;;8.96;82.37;100769.53;7394120;19;20019;-69
2022/11/15 10:02:20;;;;;;;15.10;10.50;;;;;;;9.03;82.22;100766.84;7390908;19;20019;-68
2022/11/15 10:04:52;;;;;;;15.35;10.43;;;;;;;9.10;82.09;100761.50;7391819;19;20035;-70
2022/11/15 10:07:25;;;;;;;17.50;11.70;;;;;;;9.19;81.91;100751.78;7392989;19;20027;-69
2022/11/15 10:09:57;;;;;;;18.23;11.00;;;;;;;9.25;80.45;100757.78;7394026;19;20018;-69
2022/11/15 10:12:28;;;;;;;12.93;9.77;;;;;;;9.32;80.63;100748.06;7393476;19;20073;-69
2022/11/15 10:15:02;;;;;;;15.95;10.57;;;;;;;9.38;79.64;100745.34;7390499;19;20351;-69
2022/11/15 10:18:08;;;;;;;14.30;10.32;;;;;;;9.45;78.78;100733.00;7392536;19;20011;-69
2022/11/15 10:20:49;;;;;;;16.10;10.82;;;;;;;9.50;79.10;100730.31;7391089;19;20022;-69
2022/11/15 10:23:20;;;;;;;14.38;9.98;;;;;;;9.55;79.51;100721.47;7399006;19;20031;-69
2022/11/15 10:25:48;;;;;;;14.75;10.30;;;;;;;9.58;79.22;100715.34;7400719;19;20010;-70
2022/11/15 10:28:26;;;;;;;16.27;10.85;;;;;;;9.64;79.25;100717.81;7399105;19;20411;-69
2022/11/15 10:31:02;;;;;;;14.20;10.55;;;;;;;9.68;78.99;100711.66;7400625;19;20014;-69
2022/11/15 10:33:34;;;;;;;14.75;10.55;;;;;;;9.74;78.65;100702.78;7398869;19;20036;-69
2022/11/15 10:36:25;;;;;;;13.52;10.25;;;;;;;9.78;78.29;100705.34;7399023;19;20073;-70
2022/11/15 10:38:58;;;;;;;15.68;10.10;;;;;;;9.86;78.76;100704.34;7400219;19;20011;-69
2022/11/15 10:41:40;;;;;;;18.02;12.10;;;;;;;9.91;78.71;100702.50;7398326;19;20018;-72
2022/11/15 10:44:32;;;;;;;15.35;10.02;;;;;;;9.98;78.44;100697.97;7398735;19;20014;-69
2022/11/15 10:47:27;;;;;;;13.23;9.40;;;;;;;10.05;78.37;100687.34;7396839;19;20086;-69
2022/11/15 10:50:02;;;;;;;13.57;9.55;;;;;;;10.13;78.72;100681.94;7396137;19;20372;-69
2022/11/15 10:52:35;;;;;;;12.88;8.70;;;;;;;10.19;78.55;100687.03;7399468;19;20035;-69
2022/11/15 10:55:09;;;;;;;12.65;9.30;;;;;;;10.26;78.59;100682.53;7397689;19;20023;-69
2022/11/15 10:57:40;;;;;;;12.65;8.68;;;;;;;10.32;78.32;100679.78;7399470;19;20032;-69
2022/11/15 11:00:29;;;;;;;13.45;8.27;;;;;;;10.39;78.27;100677.94;7396196;19;20018;-70
2022/11/15 11:03:03;;;;;;;12.20;8.55;;;;;;;10.46;78.21;100671.63;7398494;19;20035;-70
2022/11/15 11:05:34;;;;;;;13.80;9.00;;;;;;;10.54;77.63;100668.84;7399177;19;20391;-70
2022/11/15 11:08:07;;;;;;;12.20;8.68;;;;;;;10.64;77.37;100665.13;7399259;19;20491;-69
2022/11/15 11:10:36;;;;;;;11.30;8.93;;;;;;;10.74;77.05;100655.25;7398997;19;20027;-69
2022/11/15 11:13:24;;;;;;;12.52;8.93;;;;;;;10.83;76.21;100654.16;7395729;19;20027;-69
2022/11/15 11:16:00;;;;;;;12.55;8.60;;;;;;;10.89;75.85;100649.66;7398750;19;20010;-68
2022/11/15 11:18:36;;;;;;;15.18;10.35;;;;;;;10.96;75.95;100655.59;7395581;19;20050;-70
2022/11/15 11:21:11;;;;;;;13.25;8.95;;;;;;;11.04;75.94;100647.53;7398608;19;20384;-70
2022/11/15 11:23:53;;;;;;;13.65;8.00;;;;;;;11.08;75.43;100650.06;7395586;19;20014;-71
2022/11/15 11:26:38;;;;;;;11.23;8.50;;;;;;;11.12;74.90;100640.34;7397647;19;20026;-70
2022/11/15 11:29:27;;;;;;;12.50;8.77;;;;;;;11.20;75.26;100640.13;7394247;19;20475;-70
2022/11/15 11:32:05;;;;;;;13.80;10.52;;;;;;;11.27;75.07;100639.06;7397807;19;20023;-70
2022/11/15 11:34:45;;;;;;;12.40;9.20;;;;;;;11.33;74.92;100636.28;7394324;19;20018;-69
2022/11/15 11:37:21;;;;;;;13.77;9.45;;;;;;;11.38;74.91;100630.91;7398272;19;20011;-70
2022/11/15 11:40:07;;;;;;;11.18;7.70;;;;;;;11.44;74.57;100624.59;7395971;19;20022;-70
2022/11/15 11:42:43;;;;;;;9.30;7.38;;;;;;;11.51;74.31;100624.44;7396577;19;20030;-70
2022/11/15 11:45:21;;;;;;;8.75;7.18;;;;;;;11.56;73.94;100625.16;7397206;19;20485;-70
2022/11/15 11:47:54;;;;;;;9.57;7.57;;;;;;;11.60;73.98;100615.44;7395107;19;20033;-70
2022/11/15 11:50:25;;;;;;;13.68;7.60;;;;;;;11.66;73.71;100617.00;7394623;19;20416;-69
2022/11/15 11:52:59;;;;;;;8.63;6.97;;;;;;;11.71;73.39;100612.47;7397157;19;20031;-70